Flight Track Log - Related Links

Times and Time Zones

All times are in EDT time to prevent confusion due to time zone crossing. See the FFT920 flight status page for this flight to view local times or setup timezone preferences in your user account.

Time Position Orientation Groundspeed Altitude Reporting Facility
EDT Latitude Longitude Course Direction KTS MPH feet Rate Location/Type
Thu 08:43:10 AM 35.9130 -78.7640 23° Northeast 163 188 2,100  Level FlightAware ADS-B
Thu 08:43:41 AM 35.9360 -78.7520 23° Northeast 210 242 2,700 1,770 Climbing FlightAware ADS-B
Thu 08:44:11 AM 35.9710 -78.7380 18° North 255 293 3,900 2,778 Climbing FlightAware ADS-B
Thu 08:44:35 AM 35.9980 -78.7290 15° North 264 304 5,200 3,214 Climbing FlightAware ADS-B
Thu 08:45:07 AM 36.0380 -78.7160 15° North 281 323 6,900 3,462 Climbing FlightAware ADS-B
Thu 08:45:27 AM 36.0640 -78.7070 16° North 279 321 8,200 3,805 Climbing FlightAware ADS-B
Thu 08:45:48 AM 36.0880 -78.6990 15° North 274 315 9,500 2,559 Climbing FlightAware ADS-B
Thu 08:46:35 AM 36.1520 -78.6780 15° North 325 374 11,100 2,318 Climbing FlightAware ADS-B
Thu 08:47:16 AM 36.2120 -78.6580 15° North 342 394 12,900 2,550 Climbing FlightAware ADS-B
Thu 08:47:55 AM 36.2730 -78.6380 15° North 361 415 14,500 2,506 Climbing FlightAware ADS-B
Thu 08:48:35 AM 36.3420 -78.6150 15° North 379 436 16,200 2,231 Climbing FlightAware ADS-B
Thu 08:49:13 AM 36.4080 -78.5930 15° North 397 457 17,400 1,308 Climbing FlightAware ADS-B
Thu 08:49:53 AM 36.4740 -78.5710 15° North 405 466 17,900 395 Climbing FlightAware ADS-B
Thu 08:50:29 AM 36.5290 -78.5530 15° North 405 466 17,900 2,260 Level FlightAware ADS-B
Thu 08:51:10 AM 36.6160 -78.5190 17° North 422 486 20,800 1,955 Climbing FlightAware ADS-B
Thu 08:51:58 AM 36.6920 -78.4910 16° North 422 486 20,800  Level FlightAware ADS-B
Thu 08:52:34 AM 36.7490 -78.4710 16° North 422 486 20,800  Level FlightAware ADS-B
Thu 08:53:22 AM 36.8260 -78.4440 16° North 422 486 20,800  Level FlightAware ADS-B
Thu 08:53:58 AM 36.8830 -78.4230 16° North 422 486 20,800  Level FlightAware ADS-B
Thu 08:54:34 AM 36.9410 -78.4020 16° North 422 486 20,800 6,150 Level FlightAware ADS-B
Thu 08:55:18 AM 37.0630 -78.2140 51° Northeast 445 512 29,000 5,467 Climbing FlightAware ADS-B
Thu 08:56:04 AM 37.1420 -78.1500 33° Northeast 432 497 29,000  Level FlightAware ADS-B
Thu 08:56:40 AM 37.2010 -78.1010 33° Northeast 29,000  Level FlightAware ADS-B
Thu 08:57:30 AM 37.2760 -78.0400 33° Northeast 423 487 29,000  Level FlightAware ADS-B
Thu 09:00:14 AM 37.5520 -77.8080 34° Northeast 429 494 29,000  Level FlightAware ADS-B
Thu 09:00:58 AM 37.6260 -77.7400 36° Northeast 428 493 29,000  Level FlightAware ADS-B
Thu 09:01:42 AM 37.6950 -77.6770 36° Northeast 429 494 29,000  Level FlightAware ADS-B
Thu 09:02:22 AM 37.7580 -77.6200 36° Northeast 429 494 29,000  Level FlightAware ADS-B
Thu 09:03:06 AM 37.8330 -77.5530 35° Northeast 430 495 29,000  Level FlightAware ADS-B
Thu 09:03:38 AM 37.8840 -77.5060 36° Northeast 431 496 29,000  Level FlightAware ADS-B
Thu 09:04:22 AM 37.9550 -77.4410 36° Northeast 431 496 29,000  Level FlightAware ADS-B
Thu 09:05:03 AM 38.0210 -77.3810 36° Northeast 432 497 29,000  Level FlightAware ADS-B
Thu 09:05:46 AM 38.0930 -77.3150 36° Northeast 431 496 29,000 71 Level FlightAware ADS-B
Thu 09:06:28 AM 38.1590 -77.2540 36° Northeast 429 494 29,100  Climbing FlightAware ADS-B
Thu 09:07:08 AM 38.2220 -77.1950 36° Northeast 428 493 29,000 -71 Descending FlightAware ADS-B
Thu 09:07:52 AM 38.2930 -77.1300 36° Northeast 427 491 29,000  Level FlightAware ADS-B
Thu 09:08:27 AM 38.3500 -77.0770 36° Northeast 427 491 29,000  Level FlightAware ADS-B
Thu 09:09:11 AM 38.4200 -77.0120 36° Northeast 426 490 29,000 -300 Level FlightAware ADS-B
Thu 09:09:47 AM 38.4770 -76.9590 36° Northeast 430 495 28,600 -1,244 Descending FlightAware ADS-B
Thu 09:10:33 AM 38.5510 -76.8900 36° Northeast 432 497 27,300 -1,886 Descending FlightAware ADS-B
Thu 09:10:57 AM 38.5900 -76.8530 37° Northeast 434 499 26,400 -2,118 Descending FlightAware ADS-B
Thu 09:11:41 AM 38.6590 -76.7890 36° Northeast 434 499 24,900 -2,000 Descending FlightAware ADS-B
Thu 09:12:27 AM 38.7150 -76.6960 52° Northeast 424 488 23,400 -1,724 Descending FlightAware ADS-B
Thu 09:13:08 AM 38.7320 -76.6180 74° East 419 482 22,400 -1,829 Descending FlightAware ADS-B
Thu 09:13:49 AM 38.7570 -76.5000 75° East 403 464 20,900 -1,906 Descending FlightAware ADS-B
Thu 09:14:33 AM 38.7770 -76.4030 75° East 388 447 19,700 -1,643 Descending FlightAware ADS-B
Thu 09:15:13 AM 38.7950 -76.3140 75° East 378 435 18,600 -1,650 Descending FlightAware ADS-B
Thu 09:15:53 AM 38.8130 -76.2300 75° East 373 429 17,500 -1,575 Descending FlightAware ADS-B
Thu 09:16:33 AM 38.8300 -76.1470 75° East 369 425 16,500 -1,575 Descending FlightAware ADS-B
Thu 09:17:13 AM 38.8480 -76.0600 75° East 368 423 15,400 -1,184 Descending FlightAware ADS-B
Thu 09:17:49 AM 38.8620 -75.9860 76° East 368 423 15,000 -289 Descending FlightAware ADS-B
Thu 09:18:36 AM 38.8810 -75.8930 75° East 361 415 15,000 -585 Level FlightAware ADS-B
Thu 09:19:11 AM 38.9070 -75.8250 64° Northeast 354 407 14,200 -651 Descending FlightAware ADS-B
Thu 09:22:08 AM 39.1510 -75.6680 27° Northeast 322 371 12,700 -509 Descending FlightAware ADS-B
Thu 09:22:43 AM 39.2040 -75.6620 North 322 371 12,400 -494 Descending FlightAware ADS-B
Thu 09:23:33 AM 39.2770 -75.6530 North 315 362 12,000 -400 Descending FlightAware ADS-B
Thu 09:23:43 AM 39.2900 -75.6470 20° North 304 350 12,000 -480 Level FlightAware ADS-B
Thu 09:23:58 AM 39.3090 -75.6270 39° Northeast 313 360 11,800 -792 Descending FlightAware ADS-B
Thu 09:24:36 AM 39.3370 -75.5840 50° Northeast 305 351 11,300 -593 Descending FlightAware ADS-B
Thu 09:25:19 AM 39.3730 -75.5330 48° Northeast 303 349 11,000 -725 Descending FlightAware ADS-B
Thu 09:26:07 AM 39.4290 -75.4520 48° Northeast 307 353 10,200 -741 Descending FlightAware ADS-B
Thu 09:26:40 AM 39.4630 -75.4020 49° Northeast 308 354 10,000 -156 Descending FlightAware ADS-B
Thu 09:27:24 AM 39.5040 -75.3430 48° Northeast 306 352 10,000  Level FlightAware ADS-B
Thu 09:27:50 AM 39.5290 -75.3060 49° Northeast 307 353 10,000  Level FlightAware ADS-B
Thu 09:28:16 AM 39.5530 -75.2710 48° Northeast 305 351 10,000  Level FlightAware ADS-B
Thu 09:28:40 AM 39.5770 -75.2380 47° Northeast 304 350 10,000 -462 Level FlightAware ADS-B
Thu 09:29:08 AM 39.6030 -75.2000 48° Northeast 299 344 9,600 -1,345 Descending FlightAware ADS-B
Thu 09:29:38 AM 39.6310 -75.1600 48° Northeast 301 346 8,700 -1,655 Descending FlightAware ADS-B
Thu 09:30:06 AM 39.6570 -75.1220 48° Northeast 296 341 8,000 -1,333 Descending FlightAware ADS-B
Thu 09:30:14 AM 39.6630 -75.1130 49° Northeast 294 338 7,900 -1,610 Descending FlightAware ADS-B
Thu 09:30:47 AM 39.6930 -75.0680 49° Northeast 291 335 6,900 -1,600 Descending FlightAware ADS-B
Thu 09:31:14 AM 39.7150 -75.0340 50° Northeast 284 327 6,300 -1,385 Descending FlightAware ADS-B
Thu 09:31:26 AM 39.7240 -75.0200 50° Northeast 282 325 6,000 -1,463 Descending FlightAware ADS-B
Thu 09:31:55 AM 39.7510 -74.9820 47° Northeast 274 315 5,300 -1,467 Descending FlightAware ADS-B
Thu 09:32:11 AM 39.7670 -74.9650 39° Northeast 272 313 4,900 -1,393 Descending FlightAware ADS-B
Thu 09:32:51 AM 39.8090 -74.9370 27° Northeast 259 298 4,000 -720 Descending FlightAware ADS-B
Thu 09:33:26 AM 39.8460 -74.9110 28° Northeast 269 310 4,000  Level FlightAware ADS-B
Thu 09:33:52 AM 39.8760 -74.8910 27° Northeast 268 308 4,000  Level FlightAware ADS-B
Thu 09:34:07 AM 39.8940 -74.8790 27° Northeast 269 310 4,000  Level FlightAware ADS-B
Thu 09:34:38 AM 39.9280 -74.8570 26° Northeast 271 312 4,000  Level FlightAware ADS-B
Thu 09:35:03 AM 39.9500 -74.8420 28° Northeast 270 311 4,000  Level FlightAware ADS-B
Thu 09:35:23 AM 39.9790 -74.8220 28° Northeast 268 308 4,000  Level FlightAware ADS-B
Thu 09:36:03 AM 40.0230 -74.8200 North 266 306 4,000  Level FlightAware ADS-B
Thu 09:36:23 AM 40.0470 -74.8390 329° Northwest 251 289 4,000  Level FlightAware ADS-B
Thu 09:36:48 AM 40.0690 -74.8580 327° Northwest 228 262 4,000 -360 Level FlightAware ADS-B
Thu 09:37:13 AM 40.0900 -74.8750 328° Northwest 210 242 3,700 -1,017 Descending FlightAware ADS-B
Thu 09:37:47 AM 40.1180 -74.8990 327° Northwest 213 245 3,000 -933 Descending FlightAware ADS-B
Thu 09:37:58 AM 40.1290 -74.9080 328° Northwest 216 249 3,000 -154 Level FlightAware ADS-B
Thu 09:38:26 AM 40.1530 -74.9280 328° Northwest 218 251 2,900 -226 Descending FlightAware ADS-B
Thu 09:38:51 AM 40.1740 -74.9400 336° Northwest 213 245 2,800 -556 Descending FlightAware ADS-B
Thu 09:39:20 AM 40.1950 -74.9240 30° Northeast 185 213 2,400 -421 Descending FlightAware ADS-B
Thu 09:39:48 AM 40.2090 -74.9060 44° Northeast 185 213 2,400 -1,154 Level FlightAware ADS-B
Thu 09:40:12 AM 40.2240 -74.8850 47° Northeast 161 185 1,400 -1,200 Descending FlightAware ADS-B
Thu 09:40:38 AM 40.2350 -74.8690 48° Northeast 161 185 1,400 -658 Level FlightAware ADS-B
Thu 09:41:25 AM 40.2500 -74.8333 48° Northeast 118 136 600 -1,021 Descending Philadelphia TRACON
Thu 09:43:00 AM 40.2667 -74.8000 North  Level FlightAware Approximate

Login

Don't have an account? Register now (free) for customized features, flight alerts, and more!